Time;durP1;ratioP1;P1;durP2;ratioP2;P2;SDS_P1;SDS_P2;PMS_P1;PMS_P2;Temp;Humidity;BMP_temperature;BMP_pressure;BME280_temperature;BME280_humidity;BME280_pressure;Samples;Min_cycle;Max_cycle;Signal;HPM_P1;HPM_P2
2023/05/02 00:00:08;;;;;;;1.65;1.38;;;;;;;;;;5024448;28;20043;-40
2023/05/02 00:02:33;;;;;;;1.70;1.60;;;;;;;;;;5023126;28;20045;-40
2023/05/02 00:04:59;;;;;;;1.45;1.30;;;;;;;;;;5024126;28;20041;-40
2023/05/02 00:07:25;;;;;;;2.90;1.30;;;;;;;;;;5024143;28;20554;-41
2023/05/02 00:09:51;;;;;;;1.70;1.50;;;;;;;;;;5023130;28;20044;-41
2023/05/02 00:12:16;;;;;;;2.67;1.42;;;;;;;;;;5021999;28;20061;-41
2023/05/02 00:14:42;;;;;;;1.65;1.55;;;;;;;;;;5026270;28;20048;-42
2023/05/02 00:17:07;;;;;;;1.65;1.55;;;;;;;;;;5022003;28;20755;-41
2023/05/02 00:19:38;;;;;;;1.40;1.30;;;;;;;;;;5026197;28;20036;-41
2023/05/02 00:22:04;;;;;;;1.63;1.33;;;;;;;;;;5021759;28;20045;-41
2023/05/02 00:24:29;;;;;;;1.85;1.27;;;;;;;;;;5022418;28;20099;-43
2023/05/02 00:26:55;;;;;;;1.50;1.40;;;;;;;;;;5016541;28;20030;-41
2023/05/02 00:29:20;;;;;;;1.50;1.40;;;;;;;;;;5021796;28;20026;-40
2023/05/02 00:31:46;;;;;;;2.13;1.80;;;;;;;;;;5022730;28;20034;-40
2023/05/02 00:34:11;;;;;;;1.58;1.48;;;;;;;;;;5024891;28;20120;-40
2023/05/02 00:36:37;;;;;;;2.45;1.35;;;;;;;;;;5023336;28;20050;-42
2023/05/02 00:39:03;;;;;;;2.38;1.48;;;;;;;;;;5024411;28;20053;-40
2023/05/02 00:41:28;;;;;;;2.17;1.30;;;;;;;;;;5022196;28;20099;-42
2023/05/02 00:43:53;;;;;;;1.95;1.30;;;;;;;;;;5025894;28;20029;-41
2023/05/02 00:46:19;;;;;;;3.08;1.50;;;;;;;;;;5021292;28;20493;-44
2023/05/02 00:48:44;;;;;;;3.20;1.67;;;;;;;;;;5023930;28;20111;-40
2023/05/02 00:51:12;;;;;;;1.58;1.48;;;;;;;;;;5021052;28;20042;-40
2023/05/02 00:53:38;;;;;;;1.50;1.40;;;;;;;;;;5021360;28;20051;-41
2023/05/02 00:56:03;;;;;;;2.97;1.20;;;;;;;;;;5022491;28;20733;-43
2023/05/02 00:58:29;;;;;;;1.52;1.40;;;;;;;;;;5020898;28;20026;-43
2023/05/02 01:01:06;;;;;;;1.45;1.35;;;;;;;;;;5022576;28;20446;-40
2023/05/02 01:04:09;;;;;;;4.03;1.40;;;;;;;;;;5020730;28;20083;-40
2023/05/02 01:06:41;;;;;;;4.53;1.80;;;;;;;;;;5019279;28;20531;-41
2023/05/02 01:09:28;;;;;;;4.10;2.08;;;;;;;;;;5022254;28;20032;-40
2023/05/02 01:12:03;;;;;;;3.22;1.48;;;;;;;;;;5020359;28;20060;-43
2023/05/02 01:14:32;;;;;;;2.65;1.35;;;;;;;;;;5021209;28;20109;-40
2023/05/02 01:17:03;;;;;;;6.68;1.38;;;;;;;;;;5022544;28;23319;-41
2023/05/02 01:19:33;;;;;;;3.47;1.30;;;;;;;;;;5019614;28;20379;-41
2023/05/02 01:22:03;;;;;;;1.60;1.50;;;;;;;;;;5023366;28;20553;-41
2023/05/02 01:24:41;;;;;;;3.30;1.42;;;;;;;;;;5021877;28;20735;-40
2023/05/02 01:27:26;;;;;;;1.50;1.38;;;;;;;;;;5021715;28;20049;-40
2023/05/02 01:29:53;;;;;;;1.92;1.83;;;;;;;;;;5022339;28;20037;-42
2023/05/02 01:32:22;;;;;;;1.77;1.42;;;;;;;;;;5022117;28;20513;-44
2023/05/02 01:34:50;;;;;;;3.40;1.42;;;;;;;;;;5020631;28;20048;-47
2023/05/02 01:37:17;;;;;;;3.25;1.65;;;;;;;;;;5036678;28;20042;-43
2023/05/02 01:39:43;;;;;;;2.47;1.40;;;;;;;;;;5021702;28;20025;-40
2023/05/02 01:42:11;;;;;;;5.43;1.60;;;;;;;;;;5025909;28;20049;-41
2023/05/02 01:44:38;;;;;;;1.90;1.80;;;;;;;;;;5026477;28;20037;-40
2023/05/02 01:47:05;;;;;;;3.50;1.70;;;;;;;;;;5024564;28;20494;-43
2023/05/02 01:49:33;;;;;;;1.85;1.50;;;;;;;;;;5026156;28;20037;-43
2023/05/02 01:52:03;;;;;;;2.33;1.30;;;;;;;;;;5024502;28;20034;-40
2023/05/02 01:54:30;;;;;;;1.70;1.60;;;;;;;;;;5023943;28;20359;-40
2023/05/02 01:56:57;;;;;;;1.63;1.52;;;;;;;;;;5026378;28;20115;-41
2023/05/02 01:59:25;;;;;;;2.70;1.60;;;;;;;;;;5028208;28;20517;-41
2023/05/02 02:01:51;;;;;;;1.75;1.65;;;;;;;;;;5026031;28;20037;-44
2023/05/02 02:04:18;;;;;;;1.95;1.70;;;;;;;;;;5025268;28;20026;-40
2023/05/02 02:06:56;;;;;;;1.60;1.50;;;;;;;;;;5025725;28;20144;-43
2023/05/02 02:09:22;;;;;;;2.22;1.80;;;;;;;;;;5023262;28;20045;-40
2023/05/02 02:12:04;;;;;;;2.53;1.70;;;;;;;;;;5025685;28;20083;-46
2023/05/02 02:14:36;;;;;;;3.25;1.92;;;;;;;;;;5026293;28;20156;-45
2023/05/02 02:17:08;;;;;;;1.60;1.50;;;;;;;;;;5022219;28;20046;-43
2023/05/02 02:19:34;;;;;;;4.18;1.40;;;;;;;;;;5024057;28;20032;-41
2023/05/02 02:22:03;;;;;;;1.50;1.40;;;;;;;;;;5022961;28;20109;-40
2023/05/02 02:24:29;;;;;;;1.60;1.50;;;;;;;;;;5025754;28;20053;-45
2023/05/02 02:26:54;;;;;;;1.50;1.40;;;;;;;;;;5025915;28;20036;-40
2023/05/02 02:29:20;;;;;;;1.38;1.30;;;;;;;;;;5025261;28;20037;-40
2023/05/02 02:31:45;;;;;;;1.75;1.38;;;;;;;;;;5023832;28;20040;-43
2023/05/02 02:34:11;;;;;;;1.67;1.58;;;;;;;;;;5024086;28;20045;-40
2023/05/02 02:36:36;;;;;;;8.02;1.80;;;;;;;;;;5024212;28;20302;-42
2023/05/02 02:39:23;;;;;;;6.40;2.10;;;;;;;;;;5023635;28;20109;-40
2023/05/02 02:42:08;;;;;;;2.10;1.50;;;;;;;;;;5023344;28;20042;-41
2023/05/02 02:44:58;;;;;;;2.05;1.70;;;;;;;;;;5026814;28;20091;-42
2023/05/02 02:47:35;;;;;;;1.73;1.50;;;;;;;;;;5021934;28;20103;-41
2023/05/02 02:50:21;;;;;;;4.88;1.50;;;;;;;;;;5023284;28;20108;-41
2023/05/02 02:53:03;;;;;;;2.75;1.45;;;;;;;;;;5019405;28;20049;-40
2023/05/02 02:55:37;;;;;;;1.60;1.50;;;;;;;;;;5019058;28;21455;-42
2023/05/02 02:58:05;;;;;;;1.70;1.60;;;;;;;;;;5025508;28;20132;-40
2023/05/02 03:00:32;;;;;;;1.80;1.60;;;;;;;;;;5023780;28;20046;-44
2023/05/02 03:02:57;;;;;;;1.67;1.35;;;;;;;;;;5024105;28;20374;-41
2023/05/02 03:05:23;;;;;;;2.55;1.67;;;;;;;;;;5023313;28;20030;-46
2023/05/02 03:07:49;;;;;;;4.97;1.40;;;;;;;;;;5026346;28;20029;-40
2023/05/02 03:10:15;;;;;;;1.40;1.30;;;;;;;;;;5023465;28;20053;-39
2023/05/02 03:12:40;;;;;;;1.98;1.70;;;;;;;;;;5023741;28;20052;-40
2023/05/02 03:15:22;;;;;;;3.35;1.40;;;;;;;;;;5023445;28;20029;-40
2023/05/02 03:17:47;;;;;;;3.30;1.58;;;;;;;;;;5021758;28;20111;-43
2023/05/02 03:20:12;;;;;;;2.03;1.50;;;;;;;;;;5021280;28;20029;-41
2023/05/02 03:22:38;;;;;;;1.85;1.50;;;;;;;;;;5024141;28;20025;-42
2023/05/02 03:25:03;;;;;;;1.60;1.50;;;;;;;;;;5019803;28;20037;-42
2023/05/02 03:27:30;;;;;;;3.42;1.23;;;;;;;;;;5025170;28;20045;-43
2023/05/02 03:29:56;;;;;;;2.53;1.27;;;;;;;;;;5023589;28;20033;-41
2023/05/02 03:32:21;;;;;;;5.85;1.40;;;;;;;;;;5023565;28;20045;-41
2023/05/02 03:34:47;;;;;;;3.28;1.58;;;;;;;;;;5024502;28;20379;-40
2023/05/02 03:37:12;;;;;;;2.00;1.20;;;;;;;;;;5020142;28;20044;-40
2023/05/02 03:39:38;;;;;;;1.27;1.27;;;;;;;;;;5023076;28;20092;-41
2023/05/02 03:42:04;;;;;;;1.40;1.30;;;;;;;;;;5022070;28;20056;-41
2023/05/02 03:44:29;;;;;;;2.05;1.40;;;;;;;;;;5024936;28;20492;-40
2023/05/02 03:46:55;;;;;;;1.08;1.05;;;;;;;;;;5022594;28;20038;-43
2023/05/02 03:49:20;;;;;;;1.90;1.40;;;;;;;;;;5023563;28;20033;-44
2023/05/02 03:51:46;;;;;;;6.03;1.30;;;;;;;;;;5018255;28;20037;-44
2023/05/02 03:54:11;;;;;;;1.60;1.50;;;;;;;;;;5024103;28;20052;-40
2023/05/02 03:56:38;;;;;;;4.45;1.40;;;;;;;;;;5023482;28;20482;-44
2023/05/02 03:59:03;;;;;;;2.83;1.65;;;;;;;;;;5025319;28;20036;-40
2023/05/02 04:01:28;;;;;;;2.53;1.58;;;;;;;;;;5023518;28;20067;-40
2023/05/02 04:03:54;;;;;;;1.73;1.52;;;;;;;;;;5023997;28;20030;-40
2023/05/02 04:06:20;;;;;;;1.52;1.42;;;;;;;;;;5019342;28;20042;-46
2023/05/02 04:08:45;;;;;;;4.68;1.98;;;;;;;;;;5024935;28;20037;-44
2023/05/02 04:11:11;;;;;;;2.67;1.67;;;;;;;;;;5019595;28;20405;-41
2023/05/02 04:13:36;;;;;;;1.75;1.65;;;;;;;;;;5021755;28;20090;-44
2023/05/02 04:16:01;;;;;;;3.00;1.50;;;;;;;;;;5021522;28;20065;-41
2023/05/02 04:18:27;;;;;;;1.60;1.50;;;;;;;;;;5024154;28;20486;-42
2023/05/02 04:20:52;;;;;;;4.05;1.75;;;;;;;;;;5022828;28;20033;-46
2023/05/02 04:23:18;;;;;;;1.80;1.70;;;;;;;;;;5021314;28;20550;-44
2023/05/02 04:25:55;;;;;;;3.55;1.58;;;;;;;;;;5018790;28;20042;-40
2023/05/02 04:28:21;;;;;;;2.70;1.70;;;;;;;;;;5022858;28;20113;-40
2023/05/02 04:30:48;;;;;;;4.15;1.55;;;;;;;;;;5022623;28;20578;-40
2023/05/02 04:33:13;;;;;;;2.00;1.50;;;;;;;;;;5023053;28;20091;-44
2023/05/02 04:35:40;;;;;;;1.60;1.50;;;;;;;;;;5021398;28;20041;-40
2023/05/02 04:38:05;;;;;;;1.67;1.58;;;;;;;;;;5023112;28;20034;-40
2023/05/02 04:40:32;;;;;;;4.63;1.70;;;;;;;;;;5023482;28;20532;-41
2023/05/02 04:42:57;;;;;;;2.00;1.88;;;;;;;;;;5023034;28;20061;-40
2023/05/02 04:45:24;;;;;;;1.85;1.75;;;;;;;;;;5024167;28;20155;-40
2023/05/02 04:47:49;;;;;;;1.40;1.40;;;;;;;;;;5023533;28;20056;-41
2023/05/02 04:50:15;;;;;;;1.85;1.75;;;;;;;;;;5022168;28;20029;-41
2023/05/02 04:52:40;;;;;;;1.70;1.60;;;;;;;;;;5024567;28;20025;-46
2023/05/02 04:55:06;;;;;;;2.47;1.50;;;;;;;;;;5020478;28;20034;-44
2023/05/02 04:57:32;;;;;;;1.70;1.52;;;;;;;;;;5019832;28;20132;-41
2023/05/02 04:59:57;;;;;;;3.53;1.70;;;;;;;;;;5021515;28;20026;-42
2023/05/02 05:02:24;;;;;;;4.85;1.90;;;;;;;;;;5018556;28;20036;-41
2023/05/02 05:04:50;;;;;;;2.00;1.67;;;;;;;;;;5019256;28;20040;-46
2023/05/02 05:07:15;;;;;;;1.95;1.55;;;;;;;;;;5019800;28;20401;-41
2023/05/02 05:09:40;;;;;;;1.60;1.50;;;;;;;;;;5022521;28;20033;-42
2023/05/02 05:12:06;;;;;;;1.60;1.50;;;;;;;;;;5022145;28;20525;-41
2023/05/02 05:14:32;;;;;;;2.33;1.80;;;;;;;;;;5016995;28;20081;-41
2023/05/02 05:16:58;;;;;;;4.28;1.75;;;;;;;;;;5019772;28;20049;-43
2023/05/02 05:19:23;;;;;;;1.95;1.77;;;;;;;;;;5021762;28;20044;-41
2023/05/02 05:21:49;;;;;;;1.80;1.70;;;;;;;;;;5022200;28;20042;-41
2023/05/02 05:24:15;;;;;;;2.22;1.70;;;;;;;;;;5021234;28;20025;-44
2023/05/02 05:26:41;;;;;;;1.73;1.63;;;;;;;;;;5018282;28;20065;-44
2023/05/02 05:29:07;;;;;;;4.82;1.60;;;;;;;;;;5020362;28;20068;-42
2023/05/02 05:31:32;;;;;;;1.88;1.50;;;;;;;;;;5018245;28;20502;-48
2023/05/02 05:33:57;;;;;;;1.85;1.73;;;;;;;;;;5018188;28;20032;-44
2023/05/02 05:36:23;;;;;;;6.55;1.50;;;;;;;;;;5020739;28;20574;-47
2023/05/02 05:38:49;;;;;;;1.85;1.60;;;;;;;;;;5019535;28;20525;-42
2023/05/02 05:41:15;;;;;;;3.85;1.73;;;;;;;;;;5014732;28;20042;-42
2023/05/02 05:43:40;;;;;;;1.60;1.50;;;;;;;;;;5021067;28;20120;-45
2023/05/02 05:46:06;;;;;;;4.15;1.65;;;;;;;;;;5022734;28;20038;-43
2023/05/02 05:48:31;;;;;;;1.75;1.65;;;;;;;;;;5023922;28;20071;-47
2023/05/02 05:50:56;;;;;;;3.00;1.55;;;;;;;;;;5021015;28;20046;-42
2023/05/02 05:53:22;;;;;;;4.18;2.55;;;;;;;;;;5022450;28;20150;-50
2023/05/02 05:55:47;;;;;;;1.80;1.70;;;;;;;;;;5021586;28;20103;-44
2023/05/02 05:58:12;;;;;;;3.10;1.60;;;;;;;;;;5023805;28;20056;-43
2023/05/02 06:00:38;;;;;;;1.80;1.67;;;;;;;;;;5023178;28;20049;-42
2023/05/02 06:03:04;;;;;;;1.60;1.50;;;;;;;;;;5021295;28;20033;-41
2023/05/02 06:05:30;;;;;;;1.60;1.50;;;;;;;;;;5023211;28;20053;-42
2023/05/02 06:07:56;;;;;;;1.73;1.60;;;;;;;;;;5016873;28;20030;-41
2023/05/02 06:10:22;;;;;;;2.22;1.75;;;;;;;;;;5016214;28;20037;-41
2023/05/02 06:12:48;;;;;;;1.65;1.55;;;;;;;;;;5022984;28;20039;-40
2023/05/02 06:15:13;;;;;;;1.77;1.67;;;;;;;;;;5020119;28;20036;-41
2023/05/02 06:17:38;;;;;;;1.70;1.60;;;;;;;;;;5015671;28;20028;-44
2023/05/02 06:20:05;;;;;;;2.42;1.65;;;;;;;;;;5018471;28;20551;-40
2023/05/02 06:22:30;;;;;;;5.90;1.67;;;;;;;;;;5021292;28;20791;-41
2023/05/02 06:24:55;;;;;;;2.33;1.60;;;;;;;;;;5023143;28;20041;-40
2023/05/02 06:27:21;;;;;;;1.60;1.50;;;;;;;;;;5024055;28;20034;-41
2023/05/02 06:29:49;;;;;;;1.90;1.70;;;;;;;;;;5021676;28;20401;-41
2023/05/02 06:32:14;;;;;;;4.45;1.60;;;;;;;;;;5022947;28;20537;-41
2023/05/02 06:34:40;;;;;;;3.65;1.50;;;;;;;;;;5021695;28;20051;-39
2023/05/02 06:37:05;;;;;;;7.75;1.50;;;;;;;;;;5023435;28;20045;-40
2023/05/02 06:39:32;;;;;;;1.60;1.50;;;;;;;;;;5025554;28;20577;-40
2023/05/02 06:41:57;;;;;;;1.70;1.60;;;;;;;;;;5022047;28;20037;-40
2023/05/02 06:44:23;;;;;;;6.30;1.73;;;;;;;;;;5021022;28;20033;-47
2023/05/02 06:46:49;;;;;;;1.73;1.50;;;;;;;;;;5021285;28;20125;-40
2023/05/02 06:49:14;;;;;;;1.75;1.65;;;;;;;;;;5024135;28;20038;-41
2023/05/02 06:51:40;;;;;;;1.55;1.42;;;;;;;;;;5020782;28;20294;-40
2023/05/02 06:54:05;;;;;;;1.75;1.50;;;;;;;;;;5017528;28;20025;-47
2023/05/02 06:56:30;;;;;;;2.63;2.00;;;;;;;;;;5025792;28;20169;-41
2023/05/02 06:58:57;;;;;;;5.90;1.63;;;;;;;;;;5026155;28;20563;-40
2023/05/02 07:01:23;;;;;;;1.55;1.45;;;;;;;;;;5021737;28;20037;-41
2023/05/02 07:03:48;;;;;;;1.45;1.38;;;;;;;;;;5025271;28;20083;-43
2023/05/02 07:06:13;;;;;;;2.58;1.38;;;;;;;;;;5021841;28;20517;-44
2023/05/02 07:08:39;;;;;;;2.25;1.50;;;;;;;;;;5022786;28;20033;-41
2023/05/02 07:11:04;;;;;;;2.70;1.50;;;;;;;;;;5022711;28;20046;-40
2023/05/02 07:13:29;;;;;;;4.15;1.60;;;;;;;;;;5025503;28;20136;-41
2023/05/02 07:15:55;;;;;;;4.28;1.40;;;;;;;;;;5020914;28;20063;-40
2023/05/02 07:18:21;;;;;;;7.30;1.50;;;;;;;;;;5021675;28;20116;-42
2023/05/02 07:20:46;;;;;;;4.80;1.60;;;;;;;;;;5023506;28;20132;-40
2023/05/02 07:23:12;;;;;;;7.95;1.90;;;;;;;;;;5026112;28;20048;-41
2023/05/02 07:25:38;;;;;;;2.08;1.40;;;;;;;;;;5021207;28;20042;-43
2023/05/02 07:28:04;;;;;;;4.53;1.52;;;;;;;;;;5027231;28;20419;-41
2023/05/02 07:30:29;;;;;;;3.45;1.70;;;;;;;;;;5025847;28;20061;-41
2023/05/02 07:32:55;;;;;;;5.35;2.25;;;;;;;;;;5022070;28;20025;-41
2023/05/02 07:35:20;;;;;;;4.50;1.50;;;;;;;;;;5022451;28;20026;-41
2023/05/02 07:37:46;;;;;;;1.70;1.40;;;;;;;;;;5018987;28;20032;-43
2023/05/02 07:40:11;;;;;;;4.20;1.70;;;;;;;;;;5021473;28;20026;-41
2023/05/02 07:42:36;;;;;;;1.40;1.30;;;;;;;;;;5022186;28;20393;-45
2023/05/02 07:45:02;;;;;;;3.53;1.60;;;;;;;;;;5024228;28;20077;-40
2023/05/02 07:47:28;;;;;;;3.72;1.50;;;;;;;;;;5024116;28;20140;-45
2023/05/02 07:49:54;;;;;;;3.83;1.48;;;;;;;;;;5022456;28;20029;-41
2023/05/02 07:52:20;;;;;;;6.05;1.48;;;;;;;;;;5024768;28;20041;-41
2023/05/02 07:54:47;;;;;;;1.83;1.40;;;;;;;;;;5023678;28;20029;-41
2023/05/02 07:57:13;;;;;;;1.60;1.50;;;;;;;;;;5022849;28;20057;-41
2023/05/02 07:59:38;;;;;;;3.83;1.42;;;;;;;;;;5023954;28;20124;-41
2023/05/02 08:02:04;;;;;;;1.80;1.50;;;;;;;;;;5021682;28;20041;-40
2023/05/02 08:04:29;;;;;;;1.48;1.35;;;;;;;;;;5022017;28;20025;-40
2023/05/02 08:06:55;;;;;;;3.08;1.63;;;;;;;;;;5021045;28;20042;-42
2023/05/02 08:09:20;;;;;;;3.35;1.40;;;;;;;;;;5021935;28;20032;-42
2023/05/02 08:11:46;;;;;;;5.03;1.35;;;;;;;;;;5022479;28;20042;-45
2023/05/02 08:14:11;;;;;;;1.63;1.45;;;;;;;;;;5023854;28;20500;-42
2023/05/02 08:16:37;;;;;;;2.67;1.30;;;;;;;;;;5022342;28;20049;-41
2023/05/02 08:19:02;;;;;;;1.50;1.40;;;;;;;;;;5024307;28;20025;-42
2023/05/02 08:21:28;;;;;;;1.48;1.38;;;;;;;;;;5023299;28;20044;-42
2023/05/02 08:23:57;;;;;;;2.70;1.80;;;;;;;;;;5025053;28;20542;-47
2023/05/02 08:26:23;;;;;;;1.90;1.80;;;;;;;;;;5021782;28;20044;-42
2023/05/02 08:28:50;;;;;;;2.05;1.40;;;;;;;;;;5023215;28;20037;-42
2023/05/02 08:31:15;;;;;;;4.22;1.38;;;;;;;;;;5024090;28;20069;-43
2023/05/02 08:33:40;;;;;;;2.25;1.60;;;;;;;;;;5024180;28;20634;-44
2023/05/02 08:36:16;;;;;;;1.40;1.30;;;;;;;;;;5020610;28;20049;-42
2023/05/02 08:38:42;;;;;;;1.52;1.42;;;;;;;;;;5022147;28;20033;-40
2023/05/02 08:41:13;;;;;;;4.25;1.70;;;;;;;;;;5023143;28;20052;-47
2023/05/02 08:43:39;;;;;;;3.03;1.35;;;;;;;;;;5023658;28;20099;-41
2023/05/02 08:46:08;;;;;;;1.38;1.38;;;;;;;;;;5018621;28;20049;-44
2023/05/02 08:48:38;;;;;;;2.70;1.48;;;;;;;;;;5020825;28;20037;-45
2023/05/02 08:51:08;;;;;;;6.05;1.23;;;;;;;;;;5021547;28;20463;-41
2023/05/02 08:53:34;;;;;;;10.85;1.70;;;;;;;;;;5018533;28;20105;-43
2023/05/02 08:56:00;;;;;;;2.20;1.38;;;;;;;;;;5021386;28;20045;-42
2023/05/02 08:58:25;;;;;;;4.05;1.50;;;;;;;;;;5017870;28;20042;-41
2023/05/02 09:00:52;;;;;;;2.97;1.67;;;;;;;;;;5021101;28;20041;-41
2023/05/02 09:03:34;;;;;;;1.30;1.20;;;;;;;;;;5018564;28;20030;-41
2023/05/02 09:06:05;;;;;;;3.97;1.33;;;;;;;;;;5020895;28;20132;-41
2023/05/02 09:08:31;;;;;;;1.85;1.52;;;;;;;;;;5019277;28;20056;-41
2023/05/02 09:10:57;;;;;;;3.55;1.50;;;;;;;;;;5020706;28;20038;-42
2023/05/02 09:13:37;;;;;;;7.38;1.50;;;;;;;;;;5022168;28;20029;-42
2023/05/02 09:16:04;;;;;;;3.17;1.70;;;;;;;;;;5019650;28;20034;-44
2023/05/02 09:18:42;;;;;;;5.38;1.20;;;;;;;;;;5019737;28;20036;-42
2023/05/02 09:21:10;;;;;;;8.57;1.73;;;;;;;;;;5022458;28;20065;-41
2023/05/02 09:23:38;;;;;;;9.40;1.25;;;;;;;;;;5023268;28;20058;-41
2023/05/02 09:26:30;;;;;;;3.33;1.45;;;;;;;;;;5018382;28;20045;-46
2023/05/02 09:28:56;;;;;;;5.20;1.30;;;;;;;;;;5022240;28;20029;-41
2023/05/02 09:31:25;;;;;;;4.43;1.67;;;;;;;;;;5021315;28;20911;-42
2023/05/02 09:33:52;;;;;;;1.75;1.13;;;;;;;;;;5023447;28;20072;-43
2023/05/02 09:36:19;;;;;;;5.57;1.45;;;;;;;;;;5022906;28;20156;-43
2023/05/02 09:38:46;;;;;;;7.22;1.70;;;;;;;;;;5019947;28;20381;-41
2023/05/02 09:41:12;;;;;;;3.58;1.85;;;;;;;;;;5022677;28;20145;-41
2023/05/02 09:43:39;;;;;;;1.73;1.20;;;;;;;;;;5021382;28;20083;-41
2023/05/02 09:46:06;;;;;;;2.42;1.30;;;;;;;;;;5020895;28;20043;-41
2023/05/02 09:48:51;;;;;;;3.80;1.67;;;;;;;;;;5022999;28;20053;-41
2023/05/02 09:51:18;;;;;;;2.13;1.50;;;;;;;;;;5019764;28;20065;-44
2023/05/02 09:53:44;;;;;;;4.45;1.30;;;;;;;;;;5020347;28;20093;-41
2023/05/02 09:56:10;;;;;;;3.88;1.35;;;;;;;;;;5021503;28;20041;-49
2023/05/02 09:58:35;;;;;;;4.53;1.40;;;;;;;;;;5021653;28;20051;-42
2023/05/02 10:01:01;;;;;;;1.35;1.25;;;;;;;;;;5019919;28;20044;-42
2023/05/02 10:03:28;;;;;;;1.63;1.45;;;;;;;;;;5023828;28;20049;-43
2023/05/02 10:05:54;;;;;;;1.65;1.52;;;;;;;;;;5025863;28;20067;-41
2023/05/02 10:08:21;;;;;;;3.15;1.17;;;;;;;;;;5024934;28;20030;-43
2023/05/02 10:10:53;;;;;;;2.20;1.40;;;;;;;;;;5020596;28;20038;-44
2023/05/02 10:13:21;;;;;;;10.40;1.45;;;;;;;;;;5027266;28;20037;-41
2023/05/02 10:15:57;;;;;;;3.75;1.80;;;;;;;;;;5021960;28;20482;-44
2023/05/02 10:18:28;;;;;;;6.93;1.60;;;;;;;;;;5025669;28;20030;-41
2023/05/02 10:21:15;;;;;;;2.25;1.20;;;;;;;;;;5024911;28;20081;-44
2023/05/02 10:23:44;;;;;;;2.10;1.50;;;;;;;;;;5019129;28;20441;-42
2023/05/02 10:26:14;;;;;;;7.53;1.80;;;;;;;;;;5024791;28;20057;-42
2023/05/02 10:28:40;;;;;;;1.60;1.33;;;;;;;;;;5025084;28;20116;-46
2023/05/02 10:31:08;;;;;;;1.40;1.30;;;;;;;;;;5024351;28;20037;-43
2023/05/02 10:33:34;;;;;;;2.88;1.50;;;;;;;;;;5027546;28;20470;-43
2023/05/02 10:36:00;;;;;;;3.85;1.40;;;;;;;;;;5023558;28;20045;-43
2023/05/02 10:38:25;;;;;;;1.15;1.08;;;;;;;;;;5023698;28;20018;-44
2023/05/02 10:41:02;;;;;;;5.68;1.33;;;;;;;;;;5024575;28;20037;-45
2023/05/02 10:43:32;;;;;;;7.82;1.60;;;;;;;;;;5025766;28;20022;-42
2023/05/02 10:45:58;;;;;;;3.65;1.20;;;;;;;;;;5025507;28;20096;-42
2023/05/02 10:48:25;;;;;;;4.82;1.48;;;;;;;;;;5021479;28;20030;-41
2023/05/02 10:51:02;;;;;;;6.35;1.42;;;;;;;;;;5024530;28;20029;-45
2023/05/02 10:53:33;;;;;;;3.10;1.30;;;;;;;;;;5020956;28;20039;-41
2023/05/02 10:56:24;;;;;;;4.50;1.40;;;;;;;;;;5023696;28;20051;-43
2023/05/02 10:58:52;;;;;;;4.15;1.33;;;;;;;;;;5026636;28;20537;-41
2023/05/02 11:01:38;;;;;;;9.13;1.60;;;;;;;;;;5023969;28;20045;-43
2023/05/02 11:04:08;;;;;;;2.95;1.30;;;;;;;;;;5021329;28;20044;-47
2023/05/02 11:07:00;;;;;;;1.67;1.10;;;;;;;;;;5023451;28;20049;-47
2023/05/02 11:09:28;;;;;;;1.65;1.55;;;;;;;;;;5023237;28;20120;-48
2023/05/02 11:11:55;;;;;;;3.13;1.52;;;;;;;;;;5022227;28;20041;-43
2023/05/02 11:14:29;;;;;;;2.78;1.20;;;;;;;;;;5025055;28;20117;-42
2023/05/02 11:17:04;;;;;;;7.35;1.23;;;;;;;;;;5026213;28;20056;-43
2023/05/02 11:19:55;;;;;;;1.58;1.48;;;;;;;;;;5024045;28;20033;-42
2023/05/02 11:22:22;;;;;;;3.97;1.40;;;;;;;;;;5021276;28;20038;-42
2023/05/02 11:24:49;;;;;;;5.68;1.48;;;;;;;;;;5025488;28;20057;-42
2023/05/02 11:30:00;;;;;;;2.95;1.55;;;;;;;;;;5022968;28;20045;-41
2023/05/02 11:32:52;;;;;;;1.90;1.58;;;;;;;;;;5021215;28;20470;-45
2023/05/02 11:35:25;;;;;;;12.30;1.63;;;;;;;;;;4965604;28;20169;-44
2023/05/02 11:37:59;;;;;;;4.78;1.55;;;;;;;;;;4965529;28;20078;-43
2023/05/02 11:40:26;;;;;;;3.47;1.30;;;;;;;;;;4964550;28;21019;-43
2023/05/02 11:42:52;;;;;;;3.53;1.50;;;;;;;;;;4965555;28;20419;-43
2023/05/02 11:45:17;;;;;;;1.67;1.55;;;;;;;;;;4964684;28;20027;-44
2023/05/02 11:47:47;;;;;;;2.85;1.60;;;;;;;;;;4964466;28;20368;-45
2023/05/02 11:50:13;;;;;;;1.92;1.40;;;;;;;;;;4965546;28;20097;-45
2023/05/02 11:52:40;;;;;;;4.03;2.50;;;;;;;;;;4965736;28;20510;-42
2023/05/02 11:55:10;;;;;;;3.20;1.95;;;;;;;;;;4966675;28;20550;-45
2023/05/02 11:57:36;;;;;;;2.50;1.65;;;;;;;;;;4964045;28;20119;-45
2023/05/02 12:00:03;;;;;;;2.95;2.08;;;;;;;;;;4963037;28;20050;-42
2023/05/02 12:02:39;;;;;;;3.28;2.28;;;;;;;;;;4964373;28;20042;-41
2023/05/02 12:05:06;;;;;;;3.63;1.70;;;;;;;;;;4962556;28;20141;-43
2023/05/02 12:07:40;;;;;;;7.65;3.13;;;;;;;;;;4965116;28;20050;-47
2023/05/02 12:10:08;;;;;;;9.20;3.30;;;;;;;;;;4964777;28;20039;-45
2023/05/02 12:12:35;;;;;;;2.65;1.85;;;;;;;;;;5004616;28;20045;-42
2023/05/02 12:15:05;;;;;;;7.60;2.38;;;;;;;;;;5021849;28;20073;-42
2023/05/02 12:17:31;;;;;;;2.90;1.40;;;;;;;;;;5019104;28;20046;-45
2023/05/02 12:19:57;;;;;;;5.18;1.48;;;;;;;;;;5021953;28;20026;-44
2023/05/02 12:22:24;;;;;;;5.57;2.08;;;;;;;;;;5022757;28;20508;-42
2023/05/02 12:24:52;;;;;;;2.90;1.17;;;;;;;;;;5022222;28;20033;-47
2023/05/02 12:27:18;;;;;;;11.98;1.50;;;;;;;;;;5021903;28;20248;-41
2023/05/02 12:29:45;;;;;;;3.25;1.25;;;;;;;;;;5024595;28;20052;-48
2023/05/02 12:32:12;;;;;;;1.48;1.38;;;;;;;;;;5018139;28;20525;-44
2023/05/02 12:34:38;;;;;;;4.68;1.90;;;;;;;;;;5023977;28;20041;-45
2023/05/02 12:37:05;;;;;;;2.97;1.55;;;;;;;;;;5018469;28;20092;-44
2023/05/02 12:39:43;;;;;;;2.40;1.50;;;;;;;;;;5019606;28;20028;-44
2023/05/02 12:42:10;;;;;;;1.70;1.60;;;;;;;;;;5020942;28;20508;-45
2023/05/02 12:44:40;;;;;;;5.47;3.00;;;;;;;;;;5017945;28;20048;-49
2023/05/02 12:47:06;;;;;;;2.00;1.90;;;;;;;;;;5021492;28;20175;-47
2023/05/02 12:49:32;;;;;;;5.28;1.70;;;;;;;;;;5018394;28;20033;-41
2023/05/02 12:51:58;;;;;;;4.93;1.50;;;;;;;;;;5019915;28;20052;-43
2023/05/02 12:54:25;;;;;;;2.65;1.35;;;;;;;;;;5021214;28;20032;-47
2023/05/02 12:56:51;;;;;;;4.55;1.65;;;;;;;;;;5021897;28;20049;-42
2023/05/02 12:59:42;;;;;;;2.05;1.20;;;;;;;;;;5020005;28;20041;-42
2023/05/02 13:02:08;;;;;;;9.35;1.40;;;;;;;;;;5015962;28;20635;-42
2023/05/02 13:04:39;;;;;;;3.30;1.25;;;;;;;;;;5022539;28;20102;-41
2023/05/02 13:07:04;;;;;;;3.60;1.40;;;;;;;;;;5020600;28;20037;-41
2023/05/02 13:09:30;;;;;;;13.18;1.33;;;;;;;;;;5018521;28;20049;-42
2023/05/02 13:11:55;;;;;;;2.78;1.35;;;;;;;;;;5017274;28;20041;-46
2023/05/02 13:14:21;;;;;;;9.55;1.40;;;;;;;;;;5020032;28;20130;-44
2023/05/02 13:16:48;;;;;;;3.17;1.27;;;;;;;;;;5021630;28;20041;-42
2023/05/02 13:19:14;;;;;;;2.83;1.40;;;;;;;;;;5020564;28;20022;-47
2023/05/02 13:21:39;;;;;;;2.97;1.15;;;;;;;;;;5022324;28;20375;-44
2023/05/02 13:24:05;;;;;;;2.30;1.30;;;;;;;;;;5017519;28;20568;-47
2023/05/02 13:26:31;;;;;;;4.03;1.55;;;;;;;;;;5018153;28;20064;-45
2023/05/02 13:28:56;;;;;;;1.67;1.08;;;;;;;;;;5017919;28;20044;-41
2023/05/02 13:31:22;;;;;;;4.78;1.30;;;;;;;;;;5018046;28;20057;-42
2023/05/02 13:33:48;;;;;;;1.95;1.30;;;;;;;;;;5017197;28;20064;-43
2023/05/02 13:36:13;;;;;;;3.38;1.52;;;;;;;;;;5022211;28;20041;-41
2023/05/02 13:38:39;;;;;;;3.45;1.27;;;;;;;;;;5021363;28;20030;-42
2023/05/02 13:41:04;;;;;;;4.80;1.27;;;;;;;;;;5025037;28;20041;-41
2023/05/02 13:43:29;;;;;;;2.45;1.33;;;;;;;;;;5023777;28;20057;-41
2023/05/02 13:45:55;;;;;;;3.72;1.38;;;;;;;;;;5019628;28;20551;-45
2023/05/02 13:48:20;;;;;;;1.60;1.50;;;;;;;;;;5027102;28;20045;-45
2023/05/02 13:50:46;;;;;;;3.55;1.30;;;;;;;;;;5025805;28;20046;-42
2023/05/02 13:53:11;;;;;;;1.48;1.30;;;;;;;;;;5026480;28;20022;-42
2023/05/02 13:55:36;;;;;;;5.43;1.73;;;;;;;;;;5026051;28;20037;-44
2023/05/02 13:58:02;;;;;;;3.17;1.48;;;;;;;;;;5024479;28;20046;-42
2023/05/02 14:00:28;;;;;;;2.58;1.25;;;;;;;;;;5022879;28;20367;-41
2023/05/02 14:02:53;;;;;;;4.43;1.30;;;;;;;;;;5022711;28;20382;-43
2023/05/02 14:05:19;;;;;;;2.20;1.35;;;;;;;;;;5024484;28;20556;-42
2023/05/02 14:07:45;;;;;;;1.48;1.15;;;;;;;;;;5024446;28;20543;-42
2023/05/02 14:10:10;;;;;;;4.07;1.40;;;;;;;;;;5025404;28;20037;-39
2023/05/02 14:12:36;;;;;;;1.55;1.20;;;;;;;;;;5025454;28;20025;-48
2023/05/02 14:15:01;;;;;;;2.15;1.20;;;;;;;;;;5024989;28;20113;-42
2023/05/02 14:17:27;;;;;;;3.53;1.33;;;;;;;;;;5023165;28;20069;-41
2023/05/02 14:19:52;;;;;;;2.95;1.33;;;;;;;;;;5022352;28;20390;-42
2023/05/02 14:22:17;;;;;;;2.88;1.10;;;;;;;;;;5024891;28;20041;-44
2023/05/02 14:24:43;;;;;;;1.25;1.20;;;;;;;;;;5025795;28;20037;-42
2023/05/02 14:27:16;;;;;;;1.80;1.65;;;;;;;;;;5024426;28;20046;-43
2023/05/02 14:29:45;;;;;;;3.63;1.27;;;;;;;;;;5026165;28;20482;-44
2023/05/02 14:32:10;;;;;;;5.20;1.60;;;;;;;;;;5022269;28;20089;-42
2023/05/02 14:34:35;;;;;;;4.30;1.60;;;;;;;;;;5019448;28;20394;-42
2023/05/02 14:37:01;;;;;;;2.15;1.50;;;;;;;;;;5021418;28;20069;-42
2023/05/02 14:39:26;;;;;;;4.00;1.58;;;;;;;;;;5024704;28;20030;-41
2023/05/02 14:41:52;;;;;;;3.70;1.40;;;;;;;;;;5021990;28;20065;-44
2023/05/02 14:44:17;;;;;;;1.98;1.33;;;;;;;;;;5023398;28;20059;-42
2023/05/02 14:46:43;;;;;;;3.15;1.33;;;;;;;;;;5024002;28;20073;-45
2023/05/02 14:49:08;;;;;;;3.13;1.42;;;;;;;;;;5022221;28;20037;-44